Campo di Volo "Air Country"

IT-0442 · Abruzja, Włochy

Historia METAR IT-0442 · Campo di Volo "Air Country"

Poniżej widzisz METAR-y z ostatnich kilku dni. Wybierz rok, aby przeglądać starsze METAR-y, począwszy od roku 2007.

18 lipca 2024

Czas Kod Pogoda Temp. Widoczność Sufit Wiatr METAR/SPECI
00:20
V
24 °C 10 km+ - 230° 230° 5 kt METAR LIBP 172220Z 23005KT CAVOK 24/20 Q1015

17 lipca 2024

Czas Kod Pogoda Temp. Widoczność Sufit Wiatr METAR/SPECI
23:50
V
25 °C 10 km+ - 240° 240° 4 kt METAR LIBP 172150Z 24004KT CAVOK 25/20 Q1015
22:50
V
26 °C 10 km+ - 240° 240° 4 kt METAR LIBP 172050Z 24004KT CAVOK 26/23 Q1015
22:20
V
27 °C 10 km+ - 240° 240° 3 kt METAR LIBP 172020Z 24003KT CAVOK 27/23 Q1015
21:50
V
27 °C 10 km+ - 270° 270° 2 kt METAR LIBP 171950Z 27002KT CAVOK 27/24 Q1015
21:20
V
28 °C 10 km+ - Var Var 1 kt METAR LIBP 171920Z VRB01KT CAVOK 28/24 Q1014
20:50
V
30 °C 10 km+ - Var Var 2 kt METAR LIBP 171850Z VRB02KT CAVOK 30/24 Q1014
20:20
V
30 °C 10 km+ - 040° 040° 3 kt METAR LIBP 171820Z 04003KT CAVOK 30/23 Q1014
19:50
V
31 °C 10 km+ - 030° 030° 4 kt METAR LIBP 171750Z 03004KT CAVOK 31/23 Q1014
19:20
V
31 °C 10 km+ - 030° 030° 5 kt METAR LIBP 171720Z 03005KT CAVOK 31/24 Q1014
18:50
V
32 °C 10 km+ - 040° 040° 6 kt METAR LIBP 171650Z 04006KT CAVOK 32/22 Q1014
18:20
V
32 °C 10 km+ - 050° 050° 6 kt METAR LIBP 171620Z 05006KT 010V070 CAVOK 32/22 Q1013
17:20
V
33 °C 10 km+ - 030° 030° 8 kt METAR LIBP 171520Z 03008KT CAVOK 33/20 Q1013
16:50
V
34 °C 10 km+ - 040° 040° 7 kt METAR LIBP 171450Z 04007KT 360V090 CAVOK 34/19 Q1013
16:20
V
34 °C 10 km+ - 050° 050° 8 kt METAR LIBP 171420Z 05008KT 010V100 CAVOK 34/18 Q1013
15:50
V
34 °C 10 km+ - 050° 050° 9 kt METAR LIBP 171350Z 05009KT CAVOK 34/19 Q1013
15:20
V
34 °C 10 km+ - 040° 040° 11 kt METAR LIBP 171320Z 04011KT CAVOK 34/21 Q1013
14:50
V
34 °C 10 km+ - 060° 060° 11 kt METAR LIBP 171250Z 06011KT CAVOK 34/20 Q1013
14:20
V
34 °C 10 km+ - 070° 070° 10 kt METAR LIBP 171220Z 07010KT 030V100 CAVOK 34/19 Q1013
13:50
V
35 °C 10 km+ - 060° 060° 10 kt METAR LIBP 171150Z 06010KT 030V090 CAVOK 35/16 Q1013
13:20
V
35 °C 10 km+ - 060° 060° 10 kt METAR LIBP 171120Z 06010KT CAVOK 35/14 Q1013
12:50
V
35 °C 10 km+ - 040° 040° 8 kt METAR LIBP 171050Z 04008KT CAVOK 35/15 Q1014
12:20
V
35 °C 10 km+ - 040° 040° 8 kt METAR LIBP 171020Z 04008KT 010V070 CAVOK 35/14 Q1014
11:50
V
35 °C 10 km+ - 040° 040° 7 kt METAR LIBP 170950Z 04007KT 360V080 CAVOK 35/15 Q1014
11:20
V
35 °C 10 km+ - 050° 050° 8 kt METAR LIBP 170920Z 05008KT 020V080 CAVOK 35/15 Q1014
10:50
V
35 °C 10 km+ - 050° 050° 7 kt METAR LIBP 170850Z 05007KT CAVOK 35/14 Q1014
10:20
V
35 °C 10 km+ - Var Var 3 kt METAR LIBP 170820Z VRB03KT CAVOK 35/14 Q1014
09:50
V
35 °C 10 km+ - Var Var 2 kt METAR LIBP 170750Z VRB02KT CAVOK 35/15 Q1014
09:20
V
33 °C 10 km+ - Var Var 2 kt METAR LIBP 170720Z VRB02KT CAVOK 33/17 Q1014
08:50
V
31 °C 10 km+ - 250° 250° 3 kt METAR LIBP 170650Z 25003KT 200V280 CAVOK 31/17 Q1014
08:20
V
29 °C 10 km+ - 230° 230° 4 kt METAR LIBP 170620Z 23004KT CAVOK 29/17 Q1014
07:50
V
27 °C 10 km+ - 220° 220° 4 kt METAR LIBP 170550Z 22004KT CAVOK 27/17 Q1013
07:20
V
25 °C 10 km+ - 220° 220° 4 kt METAR LIBP 170520Z 22004KT CAVOK 25/17 Q1013
06:50
V
22 °C 10 km+ - 220° 220° 4 kt METAR LIBP 170450Z 22004KT CAVOK 22/18 Q1013
06:20
V
22 °C 10 km+ - 210° 210° 4 kt METAR LIBP 170420Z 21004KT CAVOK 22/16 Q1013
05:50
V
21 °C 10 km+ - 220° 220° 5 kt METAR LIBP 170350Z 22005KT CAVOK 21/17 Q1013
05:20
V
21 °C 10 km+ - 210° 210° 5 kt METAR LIBP 170320Z 21005KT CAVOK 21/17 Q1013
04:50
V
23 °C 10 km+ - 240° 240° 3 kt METAR LIBP 170250Z 24003KT CAVOK 23/17 Q1013
04:20
V
22 °C 10 km+ - 230° 230° 5 kt METAR LIBP 170220Z 23005KT CAVOK 22/17 Q1012
03:50
V
23 °C 10 km+ - 230° 230° 5 kt METAR LIBP 170150Z 23005KT CAVOK 23/17 Q1012
03:20
V
23 °C 10 km+ - 220° 220° 4 kt METAR LIBP 170120Z 22004KT CAVOK 23/18 Q1012
02:50
V
24 °C 10 km+ - Var Var 2 kt METAR LIBP 170050Z VRB02KT CAVOK 24/19 Q1012
02:20
V
24 °C 10 km+ - 210° 210° 3 kt METAR LIBP 170020Z 21003KT CAVOK 24/19 Q1012
01:50
V
24 °C 10 km+ - 220° 220° 4 kt METAR LIBP 162350Z 22004KT CAVOK 24/20 Q1012
01:20
V
24 °C 10 km+ - 220° 220° 4 kt METAR LIBP 162320Z 22004KT CAVOK 24/21 Q1012
00:50
V
24 °C 10 km+ - 240° 240° 3 kt METAR LIBP 162250Z 24003KT CAVOK 24/22 Q1012
00:20
V
25 °C 10 km+ - 230° 230° 4 kt METAR LIBP 162220Z 23004KT CAVOK 25/21 Q1012

16 lipca 2024

Czas Kod Pogoda Temp. Widoczność Sufit Wiatr METAR/SPECI
23:50
V
26 °C 10 km+ - 210° 210° 4 kt METAR LIBP 162150Z 21004KT CAVOK 26/20 Q1012
23:20
V
27 °C 10 km+ - 240° 240° 3 kt METAR LIBP 162120Z 24003KT 220V330 CAVOK 27/22 Q1012
22:50
V
28 °C 10 km+ - Var Var 1 kt METAR LIBP 162050Z VRB01KT CAVOK 28/23 Q1012
22:20
V
29 °C 10 km+ - 350° 350° 2 kt METAR LIBP 162020Z 35002KT CAVOK 29/23 Q1012
21:50
V
29 °C 10 km+ - 040° 040° 4 kt METAR LIBP 161950Z 04004KT CAVOK 29/23 Q1012
21:20
V
30 °C 10 km+ - 040° 040° 4 kt METAR LIBP 161920Z 04004KT CAVOK 30/23 Q1012
20:50
V
30 °C 10 km+ - 040° 040° 5 kt METAR LIBP 161850Z 04005KT CAVOK 30/22 Q1011
20:20
V
31 °C 10 km+ - 050° 050° 4 kt METAR LIBP 161820Z 05004KT CAVOK 31/22 Q1011
19:50
V
32 °C 10 km+ - 040° 040° 4 kt METAR LIBP 161750Z AUTO 04004KT 9999 // FEW110/// 32/20 Q1011
19:20
V
33 °C 10 km+ 11.000 ft 060° 060° 3 kt METAR LIBP 161720Z AUTO 06003KT 030V140 9999 // BKN110/// 33/18 Q1011
18:50
V
34 °C 10 km+ 13.000 ft 080° 080° 4 kt METAR LIBP 161650Z AUTO 08004KT 030V110 9999 // FEW110/// BKN130/// 34/16 Q1011
18:20
V
34 °C 10 km+ - 070° 070° 5 kt METAR LIBP 161620Z AUTO 07005KT 9999 FEW120/// SCT130/// 34/16 Q1011
17:50
V
34 °C 10 km+ - 060° 060° 6 kt METAR LIBP 161550Z AUTO 06006KT 9999 NCD 34/17 Q1011
17:20
V
34 °C 10 km+ - 060° 060° 8 kt METAR LIBP 161520Z AUTO 06008KT 9999 NCD 34/18 Q1011
16:50
V
35 °C 10 km+ - 060° 060° 10 kt METAR LIBP 161450Z AUTO 06010KT 9999 NCD 35/18 Q1011
16:20
V
36 °C 10 km+ - 090° 090° 9 kt METAR LIBP 161420Z AUTO 09009KT 9999 NCD 36/16 Q1011
15:50
V
36 °C 10 km+ - 070° 070° 8 kt METAR LIBP 161350Z AUTO 07008KT 040V110 9999 NCD 36/16 Q1011
15:20
V
35 °C 10 km+ - 060° 060° 9 kt METAR LIBP 161320Z AUTO 06009KT 9999 NCD 35/16 Q1011
14:50
V
35 °C 10 km+ - 080° 080° 8 kt METAR LIBP 161250Z AUTO 08008KT 9999 NCD 35/18 Q1011
14:20
V
35 °C 10 km+ - 060° 060° 9 kt METAR LIBP 161220Z AUTO 06009KT 9999 NCD 35/18 Q1011
13:50
V
34 °C 10 km+ - 060° 060° 8 kt METAR LIBP 161150Z AUTO 06008KT 030V090 9999 NCD 34/18 Q1011
13:20
V
34 °C 10 km+ - 060° 060° 8 kt METAR LIBP 161120Z AUTO 06008KT 030V090 9999 NCD 34/18 Q1012
12:50
V
34 °C 10 km+ - 060° 060° 8 kt METAR LIBP 161050Z AUTO 06008KT 9999 NCD 34/18 Q1012
12:20
V
34 °C 10 km+ - 060° 060° 8 kt METAR LIBP 161020Z AUTO 06008KT 010V080 9999 NCD 34/18 Q1012
11:50
V
34 °C 10 km+ - 060° 060° 8 kt METAR LIBP 160950Z AUTO 06008KT 9999 NCD 34/18 Q1012
11:20
V
33 °C 10 km+ - 050° 050° 8 kt METAR LIBP 160920Z AUTO 05008KT 9999 NCD 33/18 Q1012
10:50
V
33 °C 10 km+ - 050° 050° 9 kt METAR LIBP 160850Z AUTO 05009KT 9999 NCD 33/18 Q1012
10:20
V
34 °C 10 km+ - 040° 040° 3 kt METAR LIBP 160820Z AUTO 04003KT 360V140 9999 NCD 34/16 Q1012
09:50
V
33 °C 10 km+ - Var Var 2 kt METAR LIBP 160750Z AUTO VRB02KT 9999 NCD 33/17 Q1012
09:20
V
31 °C 10 km+ - 240° 240° 4 kt METAR LIBP 160720Z AUTO 24004KT 220V280 9999 NCD 31/16 Q1012
08:50
V
30 °C 10 km+ - 250° 250° 4 kt METAR LIBP 160650Z AUTO 25004KT 220V280 9999 NCD 30/16 Q1012
08:20
V
28 °C 10 km+ - 240° 240° 4 kt METAR LIBP 160620Z AUTO 24004KT 9999 NCD 28/17 Q1012
07:50
V
26 °C 10 km+ - 220° 220° 4 kt METAR LIBP 160550Z AUTO 22004KT 9999 NCD 26/17 Q1012
07:20
V
25 °C 10 km+ - 220° 220° 4 kt METAR LIBP 160520Z AUTO 22004KT 200V260 9999 NCD 25/18 Q1012
06:50
V
24 °C 10 km+ - 200° 200° 4 kt METAR LIBP 160450Z AUTO 20004KT 9999 NCD 24/18 Q1012
06:20
V
22 °C 10 km+ - 230° 230° 3 kt METAR LIBP 160420Z AUTO 23003KT 9999 NCD 22/18 Q1011
05:50
V
22 °C 10 km+ - 240° 240° 5 kt METAR LIBP 160350Z AUTO 24005KT 9999 NCD 22/18 Q1011
05:20
V
21 °C 10 km+ - 220° 220° 4 kt METAR LIBP 160320Z AUTO 22004KT 9999 NCD 21/18 Q1011
04:50
V
22 °C 10 km+ - 230° 230° 3 kt METAR LIBP 160250Z AUTO 23003KT 9999 NCD 22/17 Q1011
04:20
V
22 °C 10 km+ - Var Var 2 kt METAR LIBP 160220Z AUTO VRB02KT 9999 NCD 22/17 Q1011
03:50
V
22 °C 10 km+ - 210° 210° 4 kt METAR LIBP 160150Z AUTO 21004KT 9999 NCD 22/18 Q1011
03:20
V
22 °C 10 km+ - 210° 210° 4 kt METAR LIBP 160120Z AUTO 21004KT 9999 NCD 22/17 Q1011
02:50
V
23 °C 10 km+ - 230° 230° 2 kt METAR LIBP 160050Z AUTO 23002KT 9999 NCD 23/17 Q1011
02:20
V
23 °C 10 km+ - 240° 240° 4 kt METAR LIBP 160020Z AUTO 24004KT 9999 NCD 23/17 Q1011
01:50
V
24 °C 10 km+ - 230° 230° 3 kt METAR LIBP 152350Z AUTO 23003KT 9999 NCD 24/17 Q1011
01:20
V
24 °C 10 km+ - Var Var 2 kt METAR LIBP 152320Z AUTO VRB02KT 9999 NCD 24/17 Q1012
00:50
V
23 °C 10 km+ - 210° 210° 7 kt METAR LIBP 152250Z AUTO 21007KT 9999 NCD 23/18 Q1012
00:20
V
25 °C 10 km+ - 260° 260° 3 kt METAR LIBP 152220Z AUTO 26003KT 9999 NCD 25/17 Q1012

15 lipca 2024

Czas Kod Pogoda Temp. Widoczność Sufit Wiatr METAR/SPECI
23:50
V
25 °C 10 km+ - 310° 310° 3 kt METAR LIBP 152150Z AUTO 31003KT 250V010 9999 NCD 25/17 Q1012
23:20
V
24 °C 10 km+ - 210° 210° 5 kt METAR LIBP 152120Z AUTO 21005KT 9999 NCD 24/17 Q1012
22:50
V
27 °C 10 km+ - 230° 230° 3 kt METAR LIBP 152050Z AUTO 23003KT 210V290 9999 NCD 27/17 Q1012
22:20
V
26 °C 10 km+ - Var Var 2 kt METAR LIBP 152020Z AUTO VRB02KT 9999 NCD 26/18 Q1012
21:50
V
27 °C 10 km+ - Var Var 1 kt METAR LIBP 151950Z AUTO VRB01KT 9999 NCD 27/17 Q1012
21:20
V
29 °C 10 km+ - Var Var 1 kt METAR LIBP 151920Z AUTO VRB01KT 9999 NCD 29/18 Q1012
20:50
V
29 °C 10 km+ - 090° 090° 2 kt METAR LIBP 151850Z AUTO 09002KT 9999 NCD 29/18 Q1012
20:20
V
30 °C 10 km+ - 060° 060° 3 kt METAR LIBP 151820Z AUTO 06003KT 9999 NCD 30/18 Q1012
19:50
V
32 °C 10 km+ - 060° 060° 3 kt METAR LIBP 151750Z AUTO 06003KT 9999 NCD 32/17 Q1012
19:20
V
32 °C 10 km+ - 050° 050° 4 kt METAR LIBP 151720Z AUTO 05004KT 9999 NCD 32/17 Q1012
18:50
V
32 °C 10 km+ - 040° 040° 4 kt METAR LIBP 151650Z AUTO 04004KT 350V070 9999 NCD 32/16 Q1011
18:20
V
32 °C 10 km+ - 040° 040° 6 kt METAR LIBP 151620Z AUTO 04006KT 9999 NCD 32/18 Q1012
17:50
V
32 °C 10 km+ - 040° 040° 7 kt METAR LIBP 151550Z AUTO 04007KT 350V080 9999 NCD 32/19 Q1012
17:20
V
32 °C 10 km+ - 030° 030° 7 kt METAR LIBP 151520Z AUTO 03007KT 350V070 9999 NCD 32/18 Q1012
16:50
V
32 °C 10 km+ - 030° 030° 7 kt METAR LIBP 151450Z AUTO 03007KT 340V070 9999 NCD 32/19 Q1012
16:20
V
33 °C 10 km+ - 040° 040° 8 kt METAR LIBP 151420Z AUTO 04008KT 360V090 9999 NCD 33/18 Q1012
15:50
V
33 °C 10 km+ - 040° 040° 8 kt METAR LIBP 151350Z AUTO 04008KT 9999 NCD 33/17 Q1012
15:20
V
32 °C 10 km+ - 060° 060° 9 kt METAR LIBP 151320Z AUTO 06009KT 020V100 9999 NCD 32/20 Q1012
14:50
V
33 °C 10 km+ - 050° 050° 10 kt METAR LIBP 151250Z AUTO 05010KT 9999 NCD 33/17 Q1012
14:20
V
33 °C 10 km+ - 040° 040° 10 kt METAR LIBP 151220Z AUTO 04010KT 020V080 9999 NCD 33/19 Q1012
13:50
V
34 °C 10 km+ - 070° 070° 10 kt METAR LIBP 151150Z AUTO 07010KT 9999 NCD 34/18 Q1012
13:20
V
33 °C 10 km+ - 060° 060° 10 kt METAR LIBP 151120Z AUTO 06010KT 9999 NCD 33/18 Q1012
12:50
V
32 °C 10 km+ - 060° 060° 11 kt METAR LIBP 151050Z AUTO 06011KT 9999 NCD 32/22 Q1012
12:20
V
31 °C 10 km+ - 050° 050° 11 kt METAR LIBP 151020Z AUTO 05011KT 020V080 9999 NCD 31/22 Q1012
11:50
V
32 °C 10 km+ - 050° 050° 9 kt METAR LIBP 150950Z AUTO 05009KT 9999 NCD 32/21 Q1012
11:20
V
32 °C 10 km+ - 060° 060° 9 kt METAR LIBP 150920Z AUTO 06009KT 030V090 9999 NCD 32/20 Q1012
10:50
V
32 °C 10 km+ - 070° 070° 9 kt METAR LIBP 150850Z AUTO 07009KT 040V100 9999 NCD 32/19 Q1012
10:20
V
32 °C 10 km+ - 040° 040° 7 kt METAR LIBP 150820Z AUTO 04007KT 010V070 9999 NCD 32/18 Q1012
09:50
V
33 °C 10 km+ - Var Var 2 kt METAR LIBP 150750Z AUTO VRB02KT 9999 NCD 33/19 Q1012
09:20
V
32 °C 10 km+ - Var Var 2 kt METAR LIBP 150720Z AUTO VRB02KT 9999 NCD 32/18 Q1013
08:50
V
30 °C 10 km+ - 220° 220° 4 kt METAR LIBP 150650Z AUTO 22004KT 180V260 9999 NCD 30/18 Q1013
08:20
V
28 °C 10 km+ - 230° 230° 5 kt METAR LIBP 150620Z AUTO 23005KT 200V260 9999 NCD 28/18 Q1013
07:50
V
26 °C 10 km+ - 250° 250° 4 kt METAR LIBP 150550Z AUTO 25004KT 220V280 9999 NCD 26/19 Q1013
Zgłoś zmianę